createdAt,value
2018-04-26T00:02:08.123Z,9.70
2018-04-26T00:04:36.198Z,9.37
2018-04-26T00:07:05.129Z,8.43
2018-04-26T00:09:33.332Z,9.30
2018-04-26T00:12:01.468Z,9.60
2018-04-26T00:14:29.797Z,8.70
2018-04-26T00:16:57.537Z,8.93
2018-04-26T00:19:25.757Z,9.27
2018-04-26T00:21:53.698Z,8.80
2018-04-26T00:24:21.953Z,8.47
2018-04-26T00:26:49.895Z,9.00
2018-04-26T00:29:17.856Z,8.87
2018-04-26T00:31:45.702Z,8.67
2018-04-26T00:34:13.635Z,9.70
2018-04-26T00:36:41.433Z,8.33
2018-04-26T00:39:09.253Z,9.00
2018-04-26T00:41:37.193Z,9.40
2018-04-26T00:44:05.213Z,9.37
2018-04-26T00:46:33.015Z,9.10
2018-04-26T00:49:00.935Z,8.73
2018-04-26T00:51:40.694Z,9.20
2018-04-26T00:54:08.714Z,8.77
2018-04-26T00:56:36.634Z,9.77
2018-04-26T00:59:04.634Z,9.37
2018-04-26T01:01:32.453Z,10.67
2018-04-26T01:04:00.280Z,11.17
2018-04-26T01:06:28.373Z,10.40
2018-04-26T01:08:56.253Z,9.63
2018-04-26T01:11:24.093Z,9.97
2018-04-26T01:13:52.253Z,10.43
2018-04-26T01:16:20.913Z,10.20
2018-04-26T01:18:48.857Z,10.73
2018-04-26T01:21:16.813Z,10.17
2018-04-26T01:23:44.573Z,10.63
2018-04-26T01:26:12.633Z,10.63
2018-04-26T01:28:40.594Z,11.73
2018-04-26T01:31:08.413Z,11.57
2018-04-26T01:33:37.115Z,11.27
2018-04-26T01:36:05.273Z,10.57
2018-04-26T01:38:33.314Z,11.50
2018-04-26T01:41:01.381Z,12.17
2018-04-26T01:43:29.275Z,11.50
2018-04-26T01:45:57.074Z,12.33
2018-04-26T01:48:25.254Z,11.43
2018-04-26T01:50:53.294Z,10.40
2018-04-26T01:53:22.134Z,11.37
2018-04-26T01:55:50.588Z,11.40
2018-04-26T01:58:18.454Z,11.23
2018-04-26T02:00:46.373Z,11.10
2018-04-26T02:03:14.319Z,10.50
2018-04-26T02:05:42.295Z,10.47
2018-04-26T02:08:10.213Z,10.80
2018-04-26T02:10:38.118Z,11.00
2018-04-26T02:13:06.053Z,10.90
2018-04-26T02:15:33.834Z,10.23
2018-04-26T02:18:01.756Z,10.70
2018-04-26T02:20:30.013Z,11.10
2018-04-26T02:22:57.833Z,10.23
2018-04-26T02:25:25.773Z,11.20
2018-04-26T02:27:53.853Z,11.20
2018-04-26T02:30:21.653Z,11.17
2018-04-26T02:32:50.373Z,11.53
2018-04-26T02:35:18.353Z,10.80
2018-04-26T02:37:46.193Z,10.90
2018-04-26T02:40:14.054Z,10.97
2018-04-26T02:42:42.679Z,11.30
2018-04-26T02:45:11.054Z,11.53
2018-04-26T02:47:38.972Z,11.63
2018-04-26T02:50:06.853Z,11.10
2018-04-26T02:52:34.735Z,11.00
2018-04-26T02:55:02.553Z,11.13
2018-04-26T02:57:30.374Z,11.20
2018-04-26T02:59:58.374Z,11.00
2018-04-26T03:02:26.216Z,10.80
2018-04-26T03:04:54.035Z,11.60
2018-04-26T03:07:22.096Z,10.60
2018-04-26T03:09:50.297Z,10.90
2018-04-26T03:12:19.098Z,11.33
2018-04-26T03:14:47.457Z,12.77
2018-04-26T03:17:15.897Z,11.03
2018-04-26T03:19:44.553Z,12.90
2018-04-26T03:22:12.452Z,11.93
2018-04-26T03:24:40.495Z,11.90
2018-04-26T03:27:15.323Z,13.07
2018-04-26T03:29:50.198Z,12.83
2018-04-26T03:32:18.576Z,12.87
2018-04-26T03:34:46.556Z,13.70
2018-04-26T03:37:14.665Z,12.60
2018-04-26T03:39:42.613Z,12.63
2018-04-26T03:42:19.332Z,13.23
2018-04-26T03:44:56.133Z,12.00
2018-04-26T03:47:31.840Z,12.00
2018-04-26T03:50:08.119Z,11.90
2018-04-26T03:52:43.960Z,12.50
2018-04-26T03:55:19.159Z,12.17
2018-04-26T03:57:57.879Z,12.70
2018-04-26T04:00:37.222Z,13.33
2018-04-26T04:03:16.793Z,12.77
2018-04-26T04:08:54.594Z,12.70
2018-04-26T04:11:22.793Z,11.50
2018-04-26T04:13:50.689Z,13.33
2018-04-26T04:16:18.793Z,12.87
2018-04-26T04:18:47.173Z,11.83
2018-04-26T04:21:15.094Z,12.73
2018-04-26T04:23:43.561Z,13.90
2018-04-26T04:26:11.536Z,12.90
2018-04-26T04:28:39.833Z,14.33
2018-04-26T04:31:07.874Z,13.87
2018-04-26T04:33:35.693Z,12.70
2018-04-26T04:36:03.613Z,11.67
2018-04-26T04:38:31.573Z,11.90
2018-04-26T04:40:59.456Z,11.67
2018-04-26T04:43:27.393Z,12.20
2018-04-26T04:45:55.333Z,12.80
2018-04-26T04:48:23.193Z,12.77
2018-04-26T04:50:51.094Z,12.30
2018-04-26T04:53:20.897Z,12.90
2018-04-26T04:55:48.793Z,12.23
2018-04-26T04:58:16.773Z,13.20
2018-04-26T05:00:44.697Z,12.10
2018-04-26T05:03:12.697Z,12.17
2018-04-26T05:05:40.621Z,12.47
2018-04-26T05:08:08.473Z,12.00
2018-04-26T05:10:36.382Z,12.30
2018-04-26T05:13:05.131Z,12.10
2018-04-26T05:15:32.973Z,11.90
2018-04-26T05:18:01.154Z,11.37
2018-04-26T05:20:29.137Z,11.93
2018-04-26T05:22:56.974Z,11.50
2018-04-26T05:25:24.694Z,11.73
2018-04-26T05:27:52.855Z,11.10
2018-04-26T05:30:20.507Z,11.07
2018-04-26T05:32:48.261Z,10.63
2018-04-26T05:35:15.940Z,11.40
2018-04-26T05:37:44.252Z,10.73
2018-04-26T05:40:14.512Z,11.33
2018-04-26T05:42:42.452Z,11.43
2018-04-26T05:45:10.292Z,11.17
2018-04-26T05:47:38.452Z,10.83
2018-04-26T05:50:06.393Z,10.80
2018-04-26T05:52:34.472Z,11.07
2018-04-26T05:55:03.235Z,11.00
2018-04-26T05:57:31.053Z,11.20
2018-04-26T05:59:59.054Z,10.57
2018-04-26T06:02:27.059Z,10.70
2018-04-26T06:04:54.918Z,10.20
2018-04-26T06:07:22.817Z,10.67
2018-04-26T06:09:50.637Z,12.00
2018-04-26T06:12:18.445Z,12.00
2018-04-26T06:17:19.517Z,10.73
2018-04-26T06:19:48.232Z,11.03
2018-04-26T06:22:16.856Z,10.90
2018-04-26T06:24:45.142Z,10.40
2018-04-26T06:27:13.836Z,9.50
2018-04-26T06:29:42.257Z,9.93
2018-04-26T06:32:10.317Z,10.30
2018-04-26T06:34:38.098Z,10.33
2018-04-26T06:37:06.018Z,8.87
2018-04-26T06:39:33.957Z,9.57
2018-04-26T06:42:01.917Z,9.63
2018-04-26T06:44:29.720Z,8.87
2018-04-26T06:46:57.536Z,10.43
2018-04-26T06:49:25.448Z,9.40
2018-04-26T06:51:53.297Z,9.97
2018-04-26T06:54:21.336Z,9.97
2018-04-26T06:56:49.236Z,8.97
2018-04-26T06:59:17.118Z,8.73
2018-04-26T07:01:44.973Z,8.03
2018-04-26T07:04:12.795Z,8.17
2018-04-26T07:06:40.734Z,8.03
2018-04-26T07:09:08.654Z,7.87
2018-04-26T07:11:36.818Z,7.80
2018-04-26T07:14:04.633Z,7.70
2018-04-26T07:16:32.476Z,8.10
2018-04-26T07:19:00.513Z,8.03
2018-04-26T07:21:28.393Z,7.67
2018-04-26T07:23:56.078Z,6.93
2018-04-26T07:26:23.940Z,7.80
2018-04-26T07:28:51.996Z,7.27
2018-04-26T07:31:20.059Z,7.93
2018-04-26T07:33:47.819Z,7.73
2018-04-26T07:36:15.585Z,7.40
2018-04-26T07:38:43.276Z,7.50
2018-04-26T07:41:13.797Z,8.50
2018-04-26T07:43:41.593Z,7.33
2018-04-26T07:46:09.297Z,7.43
2018-04-26T07:48:37.176Z,7.23
2018-04-26T07:51:05.136Z,6.90
2018-04-26T07:53:32.915Z,7.27
2018-04-26T07:56:00.861Z,7.60
2018-04-26T07:58:28.875Z,7.53
2018-04-26T08:00:56.713Z,8.67
2018-04-26T08:03:24.497Z,6.93
2018-04-26T08:05:52.296Z,6.67
2018-04-26T08:08:20.118Z,7.37
2018-04-26T08:10:48.016Z,6.83
2018-04-26T08:13:16.634Z,6.83
2018-04-26T08:15:44.495Z,9.97
2018-04-26T08:18:12.295Z,9.13
2018-04-26T08:20:40.255Z,7.20
2018-04-26T08:23:08.114Z,7.63
2018-04-26T08:25:36.153Z,7.70
2018-04-26T08:28:04.018Z,8.57
2018-04-26T08:30:31.674Z,8.50
2018-04-26T08:32:59.792Z,8.93
2018-04-26T08:35:27.593Z,8.00
2018-04-26T08:37:55.493Z,8.43
2018-04-26T08:40:23.233Z,7.57
2018-04-26T08:42:51.598Z,9.63
2018-04-26T08:45:19.333Z,8.17
2018-04-26T08:47:47.432Z,7.77
2018-04-26T08:50:15.253Z,8.47
2018-04-26T08:52:43.052Z,9.37
2018-04-26T08:55:10.853Z,8.10
2018-04-26T08:57:38.692Z,8.27
2018-04-26T09:00:09.461Z,7.90
2018-04-26T09:02:37.655Z,7.83
2018-04-26T09:05:05.435Z,8.40
2018-04-26T09:07:33.314Z,8.50
2018-04-26T09:10:01.262Z,8.03
2018-04-26T09:12:29.014Z,8.20
2018-04-26T09:14:56.962Z,7.70
2018-04-26T09:17:24.813Z,8.17
2018-04-26T09:19:52.794Z,7.70
2018-04-26T09:22:20.715Z,7.90
2018-04-26T09:24:50.122Z,7.77
2018-04-26T09:27:18.062Z,7.67
2018-04-26T09:29:45.814Z,8.07
2018-04-26T09:32:13.652Z,6.63
2018-04-26T09:34:41.471Z,8.13
2018-04-26T09:37:09.233Z,7.70
2018-04-26T09:39:46.362Z,8.13
2018-04-26T09:42:20.601Z,8.10
2018-04-26T09:44:51.654Z,8.43
2018-04-26T09:47:26.842Z,8.87
2018-04-26T09:50:02.082Z,8.10
2018-04-26T09:52:35.642Z,7.73
2018-04-26T09:55:04.068Z,7.00
2018-04-26T09:57:38.680Z,7.10
2018-04-26T10:00:06.529Z,7.10
2018-04-26T10:02:49.237Z,7.40
2018-04-26T10:05:17.223Z,7.33
2018-04-26T10:07:44.944Z,7.77
2018-04-26T10:10:12.935Z,7.43
2018-04-26T10:12:40.854Z,7.37
2018-04-26T10:15:08.896Z,7.57
2018-04-26T10:17:36.714Z,7.30
2018-04-26T10:20:04.374Z,7.20
2018-04-26T10:22:32.694Z,7.53
2018-04-26T10:25:00.531Z,8.63
2018-04-26T10:27:28.315Z,9.10
2018-04-26T10:29:56.039Z,8.63
2018-04-26T10:32:23.682Z,9.40
2018-04-26T10:34:51.512Z,8.63
2018-04-26T10:37:20.772Z,9.30
2018-04-26T10:39:48.448Z,8.57
2018-04-26T10:42:16.213Z,8.13
2018-04-26T10:44:43.886Z,8.53
2018-04-26T10:47:11.872Z,8.10
2018-04-26T10:49:39.853Z,7.23
2018-04-26T10:52:07.810Z,6.87
2018-04-26T10:54:36.071Z,6.40
2018-04-26T10:57:03.951Z,5.77
2018-04-26T10:59:31.811Z,5.20
2018-04-26T11:01:59.776Z,5.20
2018-04-26T11:04:27.517Z,4.40
2018-04-26T11:06:55.265Z,4.97
2018-04-26T11:09:22.905Z,4.83
2018-04-26T11:11:50.547Z,5.10
2018-04-26T11:14:18.360Z,4.70
2018-04-26T11:16:46.090Z,4.93
2018-04-26T11:19:13.857Z,4.97
2018-04-26T11:21:41.532Z,4.83
2018-04-26T11:24:10.005Z,4.90
2018-04-26T11:26:37.772Z,4.87
2018-04-26T11:29:06.353Z,4.67
2018-04-26T11:31:34.154Z,4.63
2018-04-26T11:34:01.835Z,4.80
2018-04-26T11:36:29.528Z,4.20
2018-04-26T11:38:57.405Z,4.47
2018-04-26T11:41:25.115Z,4.27
2018-04-26T11:43:53.569Z,4.03
2018-04-26T11:46:21.305Z,4.60
2018-04-26T11:48:48.966Z,4.23
2018-04-26T11:51:16.695Z,4.43
2018-04-26T11:53:44.396Z,4.70
2018-04-26T11:56:12.088Z,4.40
2018-04-26T11:58:39.805Z,4.40
2018-04-26T12:01:08.234Z,3.87
2018-04-26T12:03:35.937Z,4.30
2018-04-26T12:06:03.633Z,3.77
2018-04-26T12:08:31.281Z,4.17
2018-04-26T12:10:59.057Z,4.30
2018-04-26T12:13:26.898Z,4.23
2018-04-26T12:15:54.636Z,4.13
2018-04-26T12:18:22.399Z,4.43
2018-04-26T12:20:50.096Z,4.07
2018-04-26T12:23:18.096Z,3.90
2018-04-26T12:25:45.922Z,3.77
2018-04-26T12:28:13.775Z,3.80
2018-04-26T12:30:41.694Z,3.57
2018-04-26T12:33:09.813Z,3.60
2018-04-26T12:35:37.735Z,3.60
2018-04-26T12:38:05.654Z,3.23
2018-04-26T12:40:33.497Z,2.80
2018-04-26T12:43:01.342Z,3.20
2018-04-26T12:45:29.242Z,3.20
2018-04-26T12:47:57.995Z,3.33
2018-04-26T12:50:26.038Z,3.00
2018-04-26T12:52:53.934Z,2.87
2018-04-26T12:55:21.813Z,2.83
2018-04-26T12:57:49.693Z,3.20
2018-04-26T13:00:17.367Z,3.17
2018-04-26T13:02:45.376Z,2.90
2018-04-26T13:05:13.134Z,2.60
2018-04-26T13:07:40.933Z,3.10
2018-04-26T13:10:08.900Z,2.70
2018-04-26T13:12:36.856Z,3.03
2018-04-26T13:15:04.489Z,2.90
2018-04-26T13:17:33.225Z,3.07
2018-04-26T13:20:01.052Z,2.97
2018-04-26T13:22:29.076Z,2.97
2018-04-26T13:24:56.895Z,3.63
2018-04-26T13:27:25.816Z,3.73
2018-04-26T13:29:53.721Z,3.60
2018-04-26T13:32:21.432Z,3.97
2018-04-26T13:34:49.632Z,3.50
2018-04-26T13:37:17.552Z,3.67
2018-04-26T13:39:45.575Z,3.50
2018-04-26T13:42:13.413Z,2.93
2018-04-26T13:44:41.332Z,3.00
2018-04-26T13:47:09.331Z,2.27
2018-04-26T13:49:37.357Z,2.47
2018-04-26T13:52:05.529Z,2.20
2018-04-26T13:54:33.552Z,2.07
2018-04-26T13:57:02.073Z,2.13
2018-04-26T13:59:30.053Z,2.60
2018-04-26T14:01:58.933Z,2.17
2018-04-26T14:04:26.893Z,2.27
2018-04-26T14:06:54.774Z,1.90
2018-04-26T14:09:22.621Z,1.77
2018-04-26T14:11:50.533Z,1.77
2018-04-26T14:14:19.134Z,2.53
2018-04-26T14:16:47.074Z,2.30
2018-04-26T14:19:14.972Z,1.73
2018-04-26T14:21:43.133Z,1.50
2018-04-26T14:24:11.016Z,1.23
2018-04-26T14:26:39.277Z,1.40
2018-04-26T14:29:07.094Z,1.40
2018-04-26T14:31:35.055Z,1.90
2018-04-26T14:34:03.093Z,1.53
2018-04-26T14:36:30.732Z,1.90
2018-04-26T14:38:58.705Z,1.50
2018-04-26T14:41:26.934Z,1.60
2018-04-26T14:43:55.517Z,1.50
2018-04-26T14:46:23.676Z,1.50
2018-04-26T14:48:52.414Z,1.80
2018-04-26T14:51:20.278Z,1.30
2018-04-26T14:53:48.094Z,1.73
2018-04-26T14:56:15.813Z,1.60
2018-04-26T14:58:43.633Z,1.90
2018-04-26T15:01:11.515Z,1.80
2018-04-26T15:03:39.250Z,5.30
2018-04-26T15:06:07.102Z,6.97
2018-04-26T15:08:34.913Z,2.30
2018-04-26T15:11:02.654Z,2.00
2018-04-26T15:13:30.621Z,2.80
2018-04-26T15:15:58.813Z,3.23
2018-04-26T15:18:26.774Z,2.30
2018-04-26T15:20:54.634Z,2.60
2018-04-26T15:23:23.878Z,2.33
2018-04-26T15:25:51.838Z,2.20
2018-04-26T15:28:19.997Z,2.10
2018-04-26T15:30:47.958Z,2.30
2018-04-26T15:33:15.938Z,2.40
2018-04-26T15:35:43.897Z,2.30
2018-04-26T15:38:11.717Z,2.43
2018-04-26T15:40:39.698Z,2.30
2018-04-26T15:43:07.458Z,2.50
2018-04-26T15:45:35.300Z,2.80
2018-04-26T15:48:03.399Z,2.63
2018-04-26T15:53:44.917Z,3.07
2018-04-26T15:59:30.418Z,2.57
2018-04-26T16:02:18.813Z,2.80
2018-04-26T16:04:58.452Z,2.40
2018-04-26T16:07:54.332Z,3.23
2018-04-26T16:13:56.494Z,3.07
2018-04-26T16:16:41.822Z,3.43
2018-04-26T16:19:26.931Z,3.47
2018-04-26T16:22:12.372Z,3.30
2018-04-26T16:24:53.819Z,2.93
2018-04-26T16:27:39.133Z,3.47
2018-04-26T16:30:18.774Z,3.53
2018-04-26T16:33:04.137Z,3.40
2018-04-26T16:35:43.653Z,3.33
2018-04-26T16:38:23.294Z,3.40
2018-04-26T16:40:51.061Z,3.50
2018-04-26T16:43:18.834Z,3.60
2018-04-26T16:45:46.695Z,3.57
2018-04-26T16:48:14.550Z,3.60
2018-04-26T16:50:42.573Z,3.27
2018-04-26T16:53:10.432Z,3.23
2018-04-26T16:55:38.313Z,3.20
2018-04-26T16:58:06.217Z,3.60
2018-04-26T17:00:34.095Z,3.57
2018-04-26T17:03:01.887Z,3.17
2018-04-26T17:05:30.133Z,3.27
2018-04-26T17:07:58.254Z,3.37
2018-04-26T17:10:26.136Z,3.60
2018-04-26T17:12:54.014Z,3.40
2018-04-26T17:15:22.589Z,3.40
2018-04-26T17:17:50.553Z,3.17
2018-04-26T17:20:18.426Z,3.30
2018-04-26T17:22:46.262Z,3.17
2018-04-26T17:25:13.960Z,3.90
2018-04-26T17:27:41.981Z,3.17
2018-04-26T17:30:10.161Z,3.20
2018-04-26T17:32:38.359Z,3.47
2018-04-26T17:35:06.192Z,3.20
2018-04-26T17:37:34.015Z,3.03
2018-04-26T17:40:01.846Z,3.47
2018-04-26T17:42:29.633Z,4.57
2018-04-26T17:44:57.552Z,5.00
2018-04-26T17:47:25.411Z,4.20
2018-04-26T17:49:53.331Z,4.10
2018-04-26T17:52:21.092Z,4.07
2018-04-26T17:54:49.075Z,4.30
2018-04-26T17:57:16.857Z,4.20
2018-04-26T17:59:44.719Z,4.90
2018-04-26T18:02:12.497Z,5.03
2018-04-26T18:04:40.276Z,4.17
2018-04-26T18:07:08.174Z,4.10
2018-04-26T18:09:35.991Z,4.80
2018-04-26T18:12:03.875Z,5.30
2018-04-26T18:14:31.755Z,5.60
2018-04-26T18:16:59.495Z,4.60
2018-04-26T18:19:27.497Z,4.30
2018-04-26T18:21:56.032Z,4.60
2018-04-26T18:24:24.492Z,5.43
2018-04-26T18:26:52.791Z,5.30
2018-04-26T18:29:20.671Z,5.83
2018-04-26T18:31:48.573Z,7.10
2018-04-26T18:34:16.964Z,7.43
2018-04-26T18:36:44.934Z,7.87
2018-04-26T18:39:12.815Z,7.37
2018-04-26T18:41:40.655Z,6.83
2018-04-26T18:44:08.513Z,5.83
2018-04-26T18:46:36.245Z,7.00
2018-04-26T18:49:04.080Z,7.30
2018-04-26T18:51:31.760Z,6.70
2018-04-26T18:53:59.560Z,6.57
2018-04-26T18:56:27.514Z,6.27
2018-04-26T18:58:55.255Z,6.00
2018-04-26T19:03:57.034Z,6.37
2018-04-26T19:06:24.914Z,6.30
2018-04-26T19:08:52.778Z,6.40
2018-04-26T19:11:20.537Z,6.77
2018-04-26T19:13:48.495Z,6.97
2018-04-26T19:16:16.266Z,6.70
2018-04-26T19:18:43.998Z,6.80
2018-04-26T19:21:12.478Z,6.50
2018-04-26T19:23:40.444Z,6.90
2018-04-26T19:26:08.279Z,8.53
2018-04-26T19:28:37.985Z,7.93
2018-04-26T19:31:05.934Z,9.20
2018-04-26T19:33:36.135Z,9.03
2018-04-26T19:36:03.936Z,8.47
2018-04-26T19:38:31.844Z,9.10
2018-04-26T19:40:59.779Z,9.27
2018-04-26T19:43:27.499Z,7.83
2018-04-26T19:45:55.356Z,10.00
2018-04-26T19:48:24.156Z,10.30
2018-04-26T19:50:52.033Z,10.30
2018-04-26T19:53:19.936Z,10.90
2018-04-26T19:55:48.053Z,11.53
2018-04-26T19:58:15.899Z,11.63
2018-04-26T20:00:43.572Z,11.43
2018-04-26T20:03:13.281Z,12.87
2018-04-26T20:05:40.989Z,12.93
2018-04-26T20:08:08.711Z,13.23
2018-04-26T20:10:36.717Z,15.10
2018-04-26T20:13:04.545Z,14.03
2018-04-26T20:15:32.401Z,13.97
2018-04-26T20:18:00.973Z,12.73
2018-04-26T20:20:28.875Z,12.97
2018-04-26T20:25:29.793Z,11.50
2018-04-26T20:27:57.594Z,10.43
2018-04-26T20:30:25.378Z,10.60
2018-04-26T20:32:53.594Z,11.20
2018-04-26T20:35:21.458Z,10.70
2018-04-26T20:37:49.537Z,10.00
2018-04-26T20:40:17.816Z,10.20
2018-04-26T20:42:45.857Z,10.77
2018-04-26T20:45:14.148Z,10.27
2018-04-26T20:47:42.101Z,9.87
2018-04-26T20:50:10.778Z,10.10
2018-04-26T20:52:38.857Z,10.57
2018-04-26T20:55:07.098Z,11.67
2018-04-26T20:57:35.119Z,10.97
2018-04-26T21:00:03.117Z,11.77
2018-04-26T21:02:31.255Z,11.97
2018-04-26T21:04:59.196Z,12.10
2018-04-26T21:07:27.494Z,10.77
2018-04-26T21:09:55.416Z,12.80
2018-04-26T21:12:23.374Z,12.93
2018-04-26T21:14:52.101Z,13.83
2018-04-26T21:17:20.375Z,11.40
2018-04-26T21:19:49.974Z,12.97
2018-04-26T21:22:17.815Z,12.83
2018-04-26T21:24:46.130Z,12.87
2018-04-26T21:27:13.855Z,13.60
2018-04-26T21:29:41.894Z,13.23
2018-04-26T21:32:11.395Z,13.80
2018-04-26T21:34:39.854Z,13.77
2018-04-26T21:37:07.674Z,14.03
2018-04-26T21:39:35.489Z,13.70
2018-04-26T21:42:04.414Z,14.33
2018-04-26T21:44:32.315Z,13.77
2018-04-26T21:47:00.256Z,13.23
2018-04-26T21:49:27.476Z,14.57
2018-04-26T21:52:00.889Z,13.07
2018-04-26T21:54:34.405Z,13.23
2018-04-26T21:57:07.855Z,12.47
2018-04-26T21:59:41.273Z,11.90
2018-04-26T22:02:14.995Z,10.80
2018-04-26T22:04:48.835Z,11.50
2018-04-26T22:07:16.692Z,10.83
2018-04-26T22:09:44.655Z,10.87
2018-04-26T22:12:12.535Z,10.43
2018-04-26T22:14:40.964Z,11.30
2018-04-26T22:17:08.898Z,11.20
2018-04-26T22:19:36.875Z,11.97
2018-04-26T22:22:04.815Z,10.87
2018-04-26T22:24:32.737Z,11.73
2018-04-26T22:27:00.797Z,12.10
2018-04-26T22:29:28.716Z,11.60
2018-04-26T22:31:56.895Z,10.67
2018-04-26T22:34:25.617Z,11.17
2018-04-26T22:36:53.601Z,11.23
2018-04-26T22:39:21.795Z,11.00
2018-04-26T22:41:49.778Z,11.20
2018-04-26T22:44:22.271Z,11.03
2018-04-26T22:46:56.760Z,11.47
2018-04-26T22:49:31.960Z,9.93
2018-04-26T22:52:07.800Z,10.80
2018-04-26T22:54:44.920Z,10.73
2018-04-26T22:57:20.121Z,10.80
2018-04-26T22:59:55.642Z,11.07
2018-04-26T23:02:23.597Z,10.57
2018-04-26T23:04:51.737Z,8.83
2018-04-26T23:07:20.217Z,7.33
2018-04-26T23:09:48.757Z,6.97
2018-04-26T23:12:16.557Z,6.70
2018-04-26T23:14:44.559Z,7.23
2018-04-26T23:17:13.535Z,7.23
2018-04-26T23:19:41.654Z,7.43
2018-04-26T23:22:09.794Z,6.47
2018-04-26T23:24:37.697Z,7.10
2018-04-26T23:27:05.920Z,6.57
2018-04-26T23:29:33.974Z,7.00
2018-04-26T23:32:02.674Z,6.20
2018-04-26T23:34:30.614Z,5.53
2018-04-26T23:36:58.554Z,6.30
2018-04-26T23:39:26.654Z,6.20
2018-04-26T23:41:55.393Z,6.50
2018-04-26T23:44:23.274Z,10.20
2018-04-26T23:46:51.174Z,11.40
2018-04-26T23:49:19.114Z,12.87
2018-04-26T23:51:47.014Z,12.83
2018-04-26T23:54:14.996Z,13.57
2018-04-26T23:56:42.954Z,14.77
2018-04-26T23:59:11.015Z,15.00
